Portada
METAR-TAF:

METAR-TAF

Aeropuertos :

Badajoz, España

Aeropuerto de Badajoz

latitud: 38-53N, longitud: 006-49W, altitud: 185 m

Observación

El informe se hizo hace 7 horas y 28 minutos, a las 19:00 UTC
Viento 7 kt del suroeste, variando entre sur y oeste-suroeste
Temperatura 26°C
Humedad 54%
Presión 1012 hPa
Visibilidad 10 km o más
sin nubes por debajo de 1500 m y sin presencia de cumulonimbus.

METAR: LEBZ 261900Z 22007KT 190V250 CAVOK 26/16 Q1012

Hora: 04:28 (02:28 UTC)

Pronóstico

El informe se hizo hace 3 horas y 28 minutos, a las 23:00 UTC
Pronóstico válido del 27 a las 00 UTC al 27 a las 24 UTC
Viento 7 kt del suroeste
Visibilidad 10 km o más
Escasas nubes a una altura de 3000 ft
Probabilidad 30% :
Temporalmente
del 27 a las 12 UTC al 27 a las 18 UTC
Escasas nubes a una altura de 3000 ft, Cumulonimbus.

TAF: LEBZ 262300Z 2700/2724 23007KT 9999 FEW030 TX34/2715Z TN16/2706Z PROB30 TEMPO 2712/2718 FEW030CB

Observaciones y pronósticos meteorológicos de más de 4000 aeropuertos (mensajes METAR y TAF).

Los puntos amarillos y rojos representan las estaciones disponibles.

Ponga el ratón en el punto deseado para ver el nombre de la estación.

Haga clic para ver las observaciones y los pronósticos meteorológicos.

Para cambiar el mapa : haga clic en los botones verdes con una cruz de color negro para hacer un zoom, en el botón verde con un guión para alejar o en las flechas verdes para mapas adyacentes.


METAR-TAF: